createdAt,value
2023-04-24T00:00:47.238Z,99129.63
2023-04-24T00:04:50.407Z,99119.50
2023-04-24T00:08:53.359Z,99109.28
2023-04-24T00:12:57.733Z,99131.38
2023-04-24T00:17:00.706Z,99147.66
2023-04-24T00:21:03.941Z,99143.97
2023-04-24T00:25:07.374Z,99140.38
2023-04-24T00:29:11.626Z,99135.44
2023-04-24T00:33:14.552Z,99143.66
2023-04-24T00:37:17.543Z,99142.25
2023-04-24T00:41:22.010Z,99148.78
2023-04-24T00:45:26.243Z,99142.72
2023-04-24T00:49:29.452Z,99158.53
2023-04-24T00:53:32.360Z,99160.81
2023-04-24T00:57:35.396Z,99157.28
2023-04-24T01:01:43.154Z,99158.44
2023-04-24T01:05:46.160Z,99145.88
2023-04-24T01:09:52.280Z,99148.47
2023-04-24T01:13:55.240Z,99144.69
2023-04-24T01:17:59.518Z,99140.28
2023-04-24T01:22:04.015Z,99151.22
2023-04-24T01:26:08.665Z,99144.09
2023-04-24T01:30:12.332Z,99144.56
2023-04-24T01:34:15.561Z,99144.56
2023-04-24T01:38:18.621Z,99141.75
2023-04-24T01:42:23.841Z,99148.88
2023-04-24T01:46:26.925Z,99146.75
2023-04-24T01:50:29.850Z,99147.81
2023-04-24T01:54:32.979Z,99140.78
2023-04-24T01:58:37.316Z,99128.19
2023-04-24T02:02:41.386Z,99140.78
2023-04-24T02:06:44.332Z,99129.63
2023-04-24T02:10:47.264Z,99143.50
2023-04-24T02:14:51.790Z,99141.13
2023-04-24T02:18:55.771Z,99129.97
2023-04-24T02:22:58.647Z,99131.03
2023-04-24T02:27:01.552Z,99139.34
2023-04-24T02:31:06.377Z,99126.28
2023-04-24T02:35:09.691Z,99130.06
2023-04-24T02:39:12.580Z,99130.06
2023-04-24T02:43:16.561Z,99145.66
2023-04-24T02:47:20.816Z,99118.66
2023-04-24T02:51:26.210Z,99115.81
2023-04-24T02:55:29.114Z,99126.75
2023-04-24T02:59:32.928Z,99139.13
2023-04-24T03:03:37.742Z,99136.00
2023-04-24T03:07:40.818Z,99129.84
2023-04-24T03:11:43.816Z,99150.25
2023-04-24T03:15:48.045Z,99148.97
2023-04-24T03:19:52.569Z,99153.59
2023-04-24T03:23:55.895Z,99154.06
2023-04-24T03:27:59.204Z,99159.03
2023-04-24T03:32:22.368Z,99160.13
2023-04-24T03:36:27.101Z,99164.97
2023-04-24T03:40:31.466Z,99164.16
2023-04-24T03:44:35.692Z,99160.00
2023-04-24T03:48:38.666Z,99152.28
2023-04-24T03:52:44.098Z,99157.75
2023-04-24T03:56:53.153Z,99151.59
2023-04-24T04:00:58.020Z,99153.75
2023-04-24T04:05:21.727Z,99157.06
2023-04-24T04:09:26.489Z,99164.06
2023-04-24T04:13:29.489Z,99164.78
2023-04-24T04:17:32.794Z,99164.06
2023-04-24T04:21:37.425Z,99175.94
2023-04-24T04:25:55.981Z,99171.75
2023-04-24T04:30:08.624Z,99194.91
2023-04-24T04:34:21.190Z,99184.72
2023-04-24T04:38:24.188Z,99186.25
2023-04-24T04:42:47.080Z,99196.44
2023-04-24T04:46:51.148Z,99208.59
2023-04-24T04:51:09.243Z,99205.22
2023-04-24T04:55:14.431Z,99222.63
2023-04-24T04:59:43.245Z,99227.72
2023-04-24T05:03:52.843Z,99235.28
2023-04-24T05:07:57.121Z,99229.22
2023-04-24T05:12:01.424Z,99236.69
2023-04-24T05:16:08.165Z,99234.97
2023-04-24T05:20:12.012Z,99228.06
2023-04-24T05:24:15.518Z,99231.03
2023-04-24T05:28:30.660Z,99230.94
2023-04-24T05:32:43.493Z,99232.50
2023-04-24T05:36:46.562Z,99231.91
2023-04-24T05:40:49.535Z,99240.56
2023-04-24T05:44:53.677Z,99242.69
2023-04-24T05:48:58.492Z,99238.28
2023-04-24T05:53:03.067Z,99251.78
2023-04-24T05:57:09.982Z,99260.88
2023-04-24T06:01:26.221Z,99266.03
2023-04-24T06:05:40.837Z,99274.06
2023-04-24T06:09:44.012Z,99284.78
2023-04-24T06:13:47.617Z,99284.19
2023-04-24T06:18:11.544Z,99297.19
2023-04-24T06:22:16.931Z,99312.03
2023-04-24T06:26:19.892Z,99306.81
2023-04-24T06:30:22.875Z,99318.72
2023-04-24T06:34:26.043Z,99315.22
2023-04-24T06:38:30.853Z,99324.22
2023-04-24T06:42:33.834Z,99318.84
2023-04-24T06:46:37.201Z,99312.41
2023-04-24T06:50:41.048Z,99321.72
2023-04-24T06:54:45.322Z,99324.44
2023-04-24T06:58:48.307Z,99337.88
2023-04-24T07:02:51.197Z,99339.84
2023-04-24T07:06:56.842Z,99364.88
2023-04-24T07:11:01.573Z,99355.88
2023-04-24T07:15:06.375Z,99352.16
2023-04-24T07:19:09.360Z,99351.72
2023-04-24T07:23:12.296Z,99342.53
2023-04-24T07:27:16.597Z,99342.09
2023-04-24T07:31:19.819Z,99335.59
2023-04-24T07:35:22.860Z,99334.09
2023-04-24T07:39:25.957Z,99319.16
2023-04-24T07:43:30.205Z,99341.44
2023-04-24T07:47:33.449Z,99342.22
2023-04-24T07:51:39.392Z,99356.81
2023-04-24T07:55:42.344Z,99376.50
2023-04-24T07:59:47.058Z,99411.06
2023-04-24T08:03:50.095Z,99410.44
2023-04-24T08:07:53.716Z,99425.94
2023-04-24T08:11:56.638Z,99427.66
2023-04-24T08:16:01.002Z,99435.22
2023-04-24T08:20:06.165Z,99456.59
2023-04-24T08:24:09.638Z,99471.66
2023-04-24T08:28:13.824Z,99486.72
2023-04-24T08:32:18.874Z,99517.50
2023-04-24T08:36:22.782Z,99503.47
2023-04-24T08:40:30.108Z,99512.84
2023-04-24T08:44:34.673Z,99526.47
2023-04-24T08:48:39.315Z,99552.81
2023-04-24T08:52:43.404Z,99569.53
2023-04-24T08:56:47.048Z,99573.94
2023-04-24T09:00:50.199Z,99573.28
2023-04-24T09:04:54.582Z,99598.19
2023-04-24T09:08:58.042Z,99595.44
2023-04-24T09:13:02.913Z,99608.00
2023-04-24T09:17:06.119Z,99608.78
2023-04-24T09:21:11.498Z,99606.69
2023-04-24T09:25:14.591Z,99625.91
2023-04-24T09:29:18.038Z,99626.28
2023-04-24T09:33:21.579Z,99630.44
2023-04-24T09:37:31.313Z,99632.22
2023-04-24T09:41:35.020Z,99635.59
2023-04-24T09:45:38.272Z,99647.28
2023-04-24T09:49:42.689Z,99652.59
2023-04-24T09:53:49.158Z,99651.56
2023-04-24T09:58:01.550Z,99636.56
2023-04-24T10:02:05.353Z,99646.06
2023-04-24T10:06:10.263Z,99660.47
2023-04-24T10:10:15.009Z,99680.25
2023-04-24T10:14:19.098Z,99670.00
2023-04-24T10:18:23.462Z,99659.16
2023-04-24T10:22:26.815Z,99685.75
2023-04-24T10:26:31.375Z,99691.72
2023-04-24T10:30:36.992Z,99705.75
2023-04-24T10:34:40.071Z,99688.00
2023-04-24T10:38:45.676Z,99684.50
2023-04-24T10:42:55.263Z,99688.50
2023-04-24T10:46:59.184Z,99688.09
2023-04-24T10:51:02.342Z,99698.00
2023-04-24T10:55:05.645Z,99681.59
2023-04-24T10:59:12.397Z,99675.63
2023-04-24T11:03:25.611Z,99661.16
2023-04-24T11:07:28.634Z,99662.84
2023-04-24T11:11:32.109Z,99672.94
2023-04-24T11:15:36.502Z,99665.75
2023-04-24T11:19:41.089Z,99701.31
2023-04-24T11:23:43.985Z,99664.56
2023-04-24T11:27:47.407Z,99681.97
2023-04-24T11:31:52.677Z,99671.31
2023-04-24T11:35:55.981Z,99696.66
2023-04-24T11:40:00.647Z,99680.25
2023-04-24T11:44:05.468Z,99689.44
2023-04-24T11:48:09.759Z,99683.59
2023-04-24T11:52:12.958Z,99712.34
2023-04-24T11:56:19.992Z,99715.97
2023-04-24T12:00:24.268Z,99716.81
2023-04-24T12:04:28.973Z,99711.72
2023-04-24T12:08:32.777Z,99729.53
2023-04-24T12:12:35.637Z,99713.03
2023-04-24T12:16:38.940Z,99741.19
2023-04-24T12:20:43.374Z,99730.00
2023-04-24T12:24:59.423Z,99745.91
2023-04-24T12:29:03.884Z,99747.66
2023-04-24T12:33:06.901Z,99744.78
2023-04-24T12:37:13.495Z,99744.22
2023-04-24T12:41:16.737Z,99752.66
2023-04-24T12:45:20.743Z,99754.38
2023-04-24T12:49:23.776Z,99771.94
2023-04-24T12:53:29.689Z,99728.97
2023-04-24T12:57:32.906Z,99768.06
2023-04-24T13:01:35.810Z,99772.81
2023-04-24T13:05:38.746Z,99781.41
2023-04-24T13:09:43.436Z,99778.28
2023-04-24T13:13:46.365Z,99780.78
2023-04-24T13:17:49.261Z,99795.94
2023-04-24T13:21:52.274Z,99794.13
2023-04-24T13:25:58.667Z,99791.88
2023-04-24T13:30:01.754Z,99794.44
2023-04-24T13:34:05.317Z,99799.13
2023-04-24T13:38:09.433Z,99791.75
2023-04-24T13:42:15.322Z,99792.19
2023-04-24T13:46:18.355Z,99807.00
2023-04-24T13:50:21.544Z,99809.53
2023-04-24T13:54:26.876Z,99810.63
2023-04-24T13:58:31.485Z,99785.91
2023-04-24T14:02:34.844Z,99798.22
2023-04-24T14:06:37.784Z,99809.09
2023-04-24T14:10:40.824Z,99805.94
2023-04-24T14:14:45.089Z,99806.09
2023-04-24T14:18:48.196Z,99806.34
2023-04-24T14:22:51.271Z,99810.97
2023-04-24T14:26:54.336Z,99796.16
2023-04-24T14:30:58.972Z,99786.25
2023-04-24T14:35:01.910Z,99795.53
2023-04-24T14:39:07.864Z,99813.09
2023-04-24T14:43:11.440Z,99788.66
2023-04-24T14:47:15.816Z,99789.28
2023-04-24T14:51:18.712Z,99793.06
2023-04-24T14:55:21.723Z,99808.75
2023-04-24T14:59:25.086Z,99810.44
2023-04-24T15:03:30.764Z,99820.16
2023-04-24T15:07:34.099Z,99810.00
2023-04-24T15:11:37.224Z,99814.34
2023-04-24T15:15:40.172Z,99813.72
2023-04-24T15:19:44.361Z,99812.09
2023-04-24T15:23:47.535Z,99797.81
2023-04-24T15:27:50.781Z,99798.63
2023-04-24T15:31:53.908Z,99807.44
2023-04-24T15:35:58.266Z,99822.44
2023-04-24T15:40:01.568Z,99815.38
2023-04-24T15:44:04.806Z,99827.91
2023-04-24T15:48:07.750Z,99825.28
2023-04-24T15:52:12.288Z,99831.63
2023-04-24T15:56:15.485Z,99822.97
2023-04-24T16:00:19.317Z,99829.47
2023-04-24T16:04:22.716Z,99825.16
2023-04-24T16:08:26.950Z,99828.13
2023-04-24T16:12:29.869Z,99818.34
2023-04-24T16:16:33.058Z,99822.75
2023-04-24T16:20:36.086Z,99822.31
2023-04-24T16:24:40.399Z,99830.63
2023-04-24T16:28:43.776Z,99828.16
2023-04-24T16:32:46.879Z,99826.81
2023-04-24T16:36:49.760Z,99830.56
2023-04-24T16:40:54.135Z,99826.91
2023-04-24T16:44:57.131Z,99835.28
2023-04-24T16:49:00.264Z,99836.94
2023-04-24T16:53:03.213Z,99841.59
2023-04-24T16:57:08.536Z,99844.47
2023-04-24T17:01:11.543Z,99848.22
2023-04-24T17:05:14.521Z,99841.25
2023-04-24T17:09:17.571Z,99847.00
2023-04-24T17:13:21.918Z,99842.41
2023-04-24T17:17:25.633Z,99853.75
2023-04-24T17:21:28.524Z,99851.63
2023-04-24T17:25:31.566Z,99854.81
2023-04-24T17:29:35.796Z,99850.53
2023-04-24T17:33:38.879Z,99859.84
2023-04-24T17:37:41.884Z,99858.66
2023-04-24T17:41:44.870Z,99860.69
2023-04-24T17:45:50.340Z,99862.91
2023-04-24T17:49:53.311Z,99864.00
2023-04-24T17:53:56.304Z,99869.31
2023-04-24T18:02:03.790Z,99877.97
2023-04-24T18:06:07.362Z,99866.19
2023-04-24T18:10:10.462Z,99871.44
2023-04-24T18:14:13.490Z,99880.41
2023-04-24T18:18:18.255Z,99892.88
2023-04-24T18:22:21.230Z,99898.78
2023-04-24T18:26:24.318Z,99905.50
2023-04-24T18:30:31.253Z,99905.50
2023-04-24T18:34:35.663Z,99905.22
2023-04-24T18:38:38.598Z,99904.25
2023-04-24T18:42:41.802Z,99910.88
2023-04-24T18:46:44.874Z,99915.16
2023-04-24T18:50:49.257Z,99906.84
2023-04-24T18:54:52.219Z,99903.97
2023-04-24T18:58:56.255Z,99917.69
2023-04-24T19:02:59.594Z,99928.47
2023-04-24T19:07:06.937Z,99933.13
2023-04-24T19:11:11.784Z,99948.25
2023-04-24T19:15:15.172Z,99944.44
2023-04-24T19:19:18.296Z,99949.50
2023-04-24T19:23:22.925Z,99957.47
2023-04-24T19:27:26.203Z,99968.81
2023-04-24T19:31:29.195Z,99969.66
2023-04-24T19:35:32.321Z,99974.28
2023-04-24T19:39:36.961Z,99985.56
2023-04-24T19:43:40.044Z,99992.72
2023-04-24T19:47:43.456Z,99986.84
2023-04-24T19:51:46.476Z,99992.69
2023-04-24T19:55:54.752Z,99993.13
2023-04-24T19:59:57.756Z,100000.25
2023-04-24T20:04:03.682Z,100005.25
2023-04-24T20:08:06.740Z,99998.75
2023-04-24T20:12:11.382Z,99992.06
2023-04-24T20:16:14.429Z,99999.78
2023-04-24T20:20:17.528Z,100000.44
2023-04-24T20:24:20.583Z,100005.25
2023-04-24T20:28:24.902Z,99999.78
2023-04-24T20:32:27.959Z,99993.91
2023-04-24T20:36:30.895Z,99996.00
2023-04-24T20:40:35.512Z,99996.19
2023-04-24T20:44:39.995Z,99994.31
2023-04-24T20:48:43.238Z,99996.81
2023-04-24T20:52:46.200Z,100009.34
2023-04-24T20:56:49.342Z,100003.66
2023-04-24T21:00:53.692Z,100003.78
2023-04-24T21:04:56.903Z,99998.72
2023-04-24T21:08:59.778Z,100011.47
2023-04-24T21:13:02.753Z,100014.41
2023-04-24T21:17:07.236Z,100019.19
2023-04-24T21:21:10.206Z,100021.28
2023-04-24T21:25:13.429Z,100016.81
2023-04-24T21:29:16.521Z,100018.81
2023-04-24T21:33:20.860Z,100018.56
2023-04-24T21:37:23.791Z,100013.66
2023-04-24T21:41:26.837Z,100019.34
2023-04-24T21:45:30.564Z,100030.31
2023-04-24T21:49:35.009Z,100022.00
2023-04-24T21:53:37.919Z,100016.56
2023-04-24T21:57:40.861Z,100005.69
2023-04-24T22:01:44.522Z,100012.56
2023-04-24T22:05:48.970Z,100009.97
2023-04-24T22:09:51.917Z,100005.59
2023-04-24T22:13:54.905Z,100010.25
2023-04-24T22:17:57.912Z,100012.56
2023-04-24T22:22:02.340Z,99994.97
2023-04-24T22:26:06.043Z,100008.72
2023-04-24T22:30:10.066Z,100001.84
2023-04-24T22:34:13.047Z,100009.44
2023-04-24T22:38:18.140Z,100002.31
2023-04-24T22:42:21.142Z,99994.81
2023-04-24T22:46:25.018Z,99997.53
2023-04-24T22:50:29.175Z,100001.28
2023-04-24T22:54:34.929Z,99998.09
2023-04-24T22:58:37.899Z,100012.28
2023-04-24T23:02:41.442Z,100014.69
2023-04-24T23:06:44.548Z,100015.56
2023-04-24T23:10:49.873Z,100019.25
2023-04-24T23:14:52.934Z,100020.03
2023-04-24T23:18:56.028Z,100015.38
2023-04-24T23:22:59.424Z,100023.84
2023-04-24T23:27:03.853Z,100014.41
2023-04-24T23:31:06.801Z,100015.94
2023-04-24T23:35:10.202Z,100022.13
2023-04-24T23:39:13.547Z,100024.97
2023-04-24T23:43:17.819Z,100035.63
2023-04-24T23:47:20.875Z,100033.31
2023-04-24T23:51:23.860Z,100033.81
2023-04-24T23:55:26.932Z,100025.13
2023-04-24T23:59:31.280Z,100026.53
